sensor_id;sensor_type;location;lat;lon;timestamp;P1;durP1;ratioP1;P2;durP2;ratioP2
66139;SDS011;52945;51.908;8.364;2023-07-31T00:01:10;4.88;;;1.20;;
66139;SDS011;52945;51.908;8.364;2023-07-31T00:04:10;1.08;;;0.80;;
66139;SDS011;52945;51.908;8.364;2023-07-31T00:07:11;0.90;;;0.73;;
66139;SDS011;52945;51.908;8.364;2023-07-31T00:10:11;0.85;;;0.80;;
66139;SDS011;52945;51.908;8.364;2023-07-31T00:13:12;0.70;;;0.70;;
66139;SDS011;52945;51.908;8.364;2023-07-31T00:16:13;1.45;;;0.90;;
66139;SDS011;52945;51.908;8.364;2023-07-31T00:19:13;2.10;;;0.90;;
66139;SDS011;52945;51.908;8.364;2023-07-31T00:22:14;1.73;;;0.98;;
66139;SDS011;52945;51.908;8.364;2023-07-31T00:25:14;0.70;;;0.63;;
66139;SDS011;52945;51.908;8.364;2023-07-31T00:28:15;1.70;;;1.02;;
66139;SDS011;52945;51.908;8.364;2023-07-31T00:31:15;1.00;;;0.70;;
66139;SDS011;52945;51.908;8.364;2023-07-31T00:34:16;1.02;;;0.88;;
66139;SDS011;52945;51.908;8.364;2023-07-31T00:40:17;1.17;;;0.80;;
66139;SDS011;52945;51.908;8.364;2023-07-31T00:46:18;3.47;;;1.08;;
66139;SDS011;52945;51.908;8.364;2023-07-31T00:49:20;2.72;;;0.82;;
66139;SDS011;52945;51.908;8.364;2023-07-31T00:52:22;1.75;;;1.20;;
66139;SDS011;52945;51.908;8.364;2023-07-31T00:55:22;1.70;;;0.88;;
66139;SDS011;52945;51.908;8.364;2023-07-31T00:58:23;1.23;;;0.85;;
66139;SDS011;52945;51.908;8.364;2023-07-31T01:04:24;1.30;;;0.80;;
66139;SDS011;52945;51.908;8.364;2023-07-31T01:07:39;1.00;;;0.70;;
66139;SDS011;52945;51.908;8.364;2023-07-31T01:10:51;2.15;;;0.70;;
66139;SDS011;52945;51.908;8.364;2023-07-31T01:13:56;2.92;;;0.80;;
66139;SDS011;52945;51.908;8.364;2023-07-31T01:16:57;1.25;;;0.80;;
66139;SDS011;52945;51.908;8.364;2023-07-31T01:19:59;2.00;;;0.82;;
66139;SDS011;52945;51.908;8.364;2023-07-31T01:23:22;1.48;;;0.90;;
66139;SDS011;52945;51.908;8.364;2023-07-31T01:26:34;1.42;;;0.82;;
66139;SDS011;52945;51.908;8.364;2023-07-31T01:29:39;2.13;;;1.00;;
66139;SDS011;52945;51.908;8.364;2023-07-31T01:32:49;2.40;;;1.05;;
66139;SDS011;52945;51.908;8.364;2023-07-31T01:35:52;1.17;;;0.90;;
66139;SDS011;52945;51.908;8.364;2023-07-31T01:38:58;1.33;;;0.70;;
66139;SDS011;52945;51.908;8.364;2023-07-31T01:42:01;1.88;;;1.10;;
66139;SDS011;52945;51.908;8.364;2023-07-31T01:45:02;1.98;;;0.73;;
66139;SDS011;52945;51.908;8.364;2023-07-31T01:48:03;1.85;;;1.15;;
66139;SDS011;52945;51.908;8.364;2023-07-31T01:51:03;2.40;;;0.90;;
66139;SDS011;52945;51.908;8.364;2023-07-31T01:54:04;3.20;;;0.80;;
66139;SDS011;52945;51.908;8.364;2023-07-31T01:57:05;2.05;;;0.80;;
66139;SDS011;52945;51.908;8.364;2023-07-31T02:00:06;2.75;;;0.95;;
66139;SDS011;52945;51.908;8.364;2023-07-31T02:03:07;1.10;;;0.80;;
66139;SDS011;52945;51.908;8.364;2023-07-31T02:06:08;1.20;;;0.68;;
66139;SDS011;52945;51.908;8.364;2023-07-31T02:09:08;1.38;;;0.63;;
66139;SDS011;52945;51.908;8.364;2023-07-31T02:12:09;2.97;;;1.10;;
66139;SDS011;52945;51.908;8.364;2023-07-31T02:15:09;1.45;;;0.70;;
66139;SDS011;52945;51.908;8.364;2023-07-31T02:18:10;1.75;;;0.85;;
66139;SDS011;52945;51.908;8.364;2023-07-31T02:21:11;1.35;;;0.85;;
66139;SDS011;52945;51.908;8.364;2023-07-31T02:24:11;3.45;;;0.95;;
66139;SDS011;52945;51.908;8.364;2023-07-31T02:27:12;1.35;;;0.82;;
66139;SDS011;52945;51.908;8.364;2023-07-31T02:30:12;2.30;;;1.10;;
66139;SDS011;52945;51.908;8.364;2023-07-31T02:33:15;1.25;;;0.70;;
66139;SDS011;52945;51.908;8.364;2023-07-31T02:36:16;0.90;;;0.80;;
66139;SDS011;52945;51.908;8.364;2023-07-31T02:39:17;2.05;;;0.80;;
66139;SDS011;52945;51.908;8.364;2023-07-31T02:42:17;1.00;;;0.88;;
66139;SDS011;52945;51.908;8.364;2023-07-31T02:45:18;2.17;;;1.15;;
66139;SDS011;52945;51.908;8.364;2023-07-31T02:48:18;3.00;;;1.50;;
66139;SDS011;52945;51.908;8.364;2023-07-31T02:51:19;1.42;;;1.10;;
66139;SDS011;52945;51.908;8.364;2023-07-31T02:54:21;2.42;;;1.65;;
66139;SDS011;52945;51.908;8.364;2023-07-31T02:57:21;3.15;;;1.90;;
66139;SDS011;52945;51.908;8.364;2023-07-31T03:00:22;4.97;;;2.03;;
66139;SDS011;52945;51.908;8.364;2023-07-31T03:03:23;6.38;;;3.13;;
66139;SDS011;52945;51.908;8.364;2023-07-31T03:06:23;8.18;;;3.92;;
66139;SDS011;52945;51.908;8.364;2023-07-31T03:09:24;9.35;;;3.88;;
66139;SDS011;52945;51.908;8.364;2023-07-31T03:12:25;9.60;;;4.55;;
66139;SDS011;52945;51.908;8.364;2023-07-31T03:15:26;11.30;;;5.03;;
66139;SDS011;52945;51.908;8.364;2023-07-31T03:18:27;8.85;;;4.93;;
66139;SDS011;52945;51.908;8.364;2023-07-31T03:21:27;10.30;;;5.20;;
66139;SDS011;52945;51.908;8.364;2023-07-31T03:24:28;12.15;;;4.97;;
66139;SDS011;52945;51.908;8.364;2023-07-31T03:27:29;12.25;;;4.38;;
66139;SDS011;52945;51.908;8.364;2023-07-31T03:30:30;9.60;;;4.68;;
66139;SDS011;52945;51.908;8.364;2023-07-31T03:33:30;10.43;;;4.75;;
66139;SDS011;52945;51.908;8.364;2023-07-31T03:36:31;10.23;;;5.35;;
66139;SDS011;52945;51.908;8.364;2023-07-31T03:39:31;10.82;;;5.32;;
66139;SDS011;52945;51.908;8.364;2023-07-31T03:42:32;8.85;;;4.25;;
66139;SDS011;52945;51.908;8.364;2023-07-31T03:45:33;9.60;;;4.05;;
66139;SDS011;52945;51.908;8.364;2023-07-31T03:48:33;12.95;;;4.70;;
66139;SDS011;52945;51.908;8.364;2023-07-31T03:51:34;9.80;;;4.28;;
66139;SDS011;52945;51.908;8.364;2023-07-31T03:54:35;11.63;;;4.13;;
66139;SDS011;52945;51.908;8.364;2023-07-31T03:57:35;12.45;;;4.20;;
66139;SDS011;52945;51.908;8.364;2023-07-31T04:00:36;8.55;;;4.00;;
66139;SDS011;52945;51.908;8.364;2023-07-31T04:03:37;13.25;;;4.93;;
66139;SDS011;52945;51.908;8.364;2023-07-31T04:06:37;9.63;;;4.20;;
66139;SDS011;52945;51.908;8.364;2023-07-31T04:09:38;8.70;;;4.15;;
66139;SDS011;52945;51.908;8.364;2023-07-31T04:12:38;9.77;;;4.18;;
66139;SDS011;52945;51.908;8.364;2023-07-31T04:15:39;10.93;;;4.40;;
66139;SDS011;52945;51.908;8.364;2023-07-31T04:18:40;11.38;;;4.28;;
66139;SDS011;52945;51.908;8.364;2023-07-31T04:21:40;11.90;;;3.88;;
66139;SDS011;52945;51.908;8.364;2023-07-31T04:24:41;14.00;;;4.75;;
66139;SDS011;52945;51.908;8.364;2023-07-31T04:27:42;10.27;;;3.90;;
66139;SDS011;52945;51.908;8.364;2023-07-31T04:30:42;10.25;;;3.70;;
66139;SDS011;52945;51.908;8.364;2023-07-31T04:36:43;9.15;;;3.25;;
66139;SDS011;52945;51.908;8.364;2023-07-31T04:39:44;7.95;;;3.83;;
66139;SDS011;52945;51.908;8.364;2023-07-31T04:42:45;12.02;;;3.45;;
66139;SDS011;52945;51.908;8.364;2023-07-31T04:45:46;9.85;;;3.50;;
66139;SDS011;52945;51.908;8.364;2023-07-31T04:48:50;9.10;;;3.10;;
66139;SDS011;52945;51.908;8.364;2023-07-31T04:51:51;8.82;;;3.53;;
66139;SDS011;52945;51.908;8.364;2023-07-31T04:54:51;14.30;;;3.53;;
66139;SDS011;52945;51.908;8.364;2023-07-31T04:57:52;11.18;;;3.55;;
66139;SDS011;52945;51.908;8.364;2023-07-31T05:00:53;8.13;;;3.25;;
66139;SDS011;52945;51.908;8.364;2023-07-31T05:03:53;9.20;;;3.28;;
66139;SDS011;52945;51.908;8.364;2023-07-31T05:06:54;9.07;;;3.10;;
66139;SDS011;52945;51.908;8.364;2023-07-31T05:09:54;8.73;;;3.38;;
66139;SDS011;52945;51.908;8.364;2023-07-31T05:12:55;8.60;;;3.20;;
66139;SDS011;52945;51.908;8.364;2023-07-31T05:15:56;8.90;;;3.08;;
66139;SDS011;52945;51.908;8.364;2023-07-31T05:18:56;9.25;;;3.80;;
66139;SDS011;52945;51.908;8.364;2023-07-31T05:21:57;6.72;;;3.30;;
66139;SDS011;52945;51.908;8.364;2023-07-31T05:24:58;9.73;;;3.45;;
66139;SDS011;52945;51.908;8.364;2023-07-31T05:27:58;9.65;;;3.00;;
66139;SDS011;52945;51.908;8.364;2023-07-31T05:31:03;7.32;;;3.00;;
66139;SDS011;52945;51.908;8.364;2023-07-31T05:34:04;8.82;;;2.92;;
66139;SDS011;52945;51.908;8.364;2023-07-31T05:37:05;9.80;;;3.28;;
66139;SDS011;52945;51.908;8.364;2023-07-31T05:40:06;9.93;;;3.53;;
66139;SDS011;52945;51.908;8.364;2023-07-31T05:46:08;7.32;;;2.92;;
66139;SDS011;52945;51.908;8.364;2023-07-31T05:49:09;6.95;;;2.80;;
66139;SDS011;52945;51.908;8.364;2023-07-31T05:52:10;8.43;;;2.95;;
66139;SDS011;52945;51.908;8.364;2023-07-31T05:55:10;7.88;;;3.00;;
66139;SDS011;52945;51.908;8.364;2023-07-31T05:58:11;7.32;;;3.03;;
66139;SDS011;52945;51.908;8.364;2023-07-31T06:04:12;8.73;;;2.65;;
66139;SDS011;52945;51.908;8.364;2023-07-31T06:07:12;8.98;;;3.05;;
66139;SDS011;52945;51.908;8.364;2023-07-31T06:10:13;5.18;;;2.80;;
66139;SDS011;52945;51.908;8.364;2023-07-31T06:13:14;12.32;;;2.53;;
66139;SDS011;52945;51.908;8.364;2023-07-31T06:16:15;11.68;;;3.17;;
66139;SDS011;52945;51.908;8.364;2023-07-31T06:19:15;11.90;;;3.17;;
66139;SDS011;52945;51.908;8.364;2023-07-31T06:22:16;11.52;;;2.92;;
66139;SDS011;52945;51.908;8.364;2023-07-31T06:25:17;7.90;;;2.50;;
66139;SDS011;52945;51.908;8.364;2023-07-31T06:28:17;8.77;;;2.92;;
66139;SDS011;52945;51.908;8.364;2023-07-31T06:31:18;6.60;;;2.83;;
66139;SDS011;52945;51.908;8.364;2023-07-31T06:34:22;5.68;;;2.33;;
66139;SDS011;52945;51.908;8.364;2023-07-31T06:37:23;10.43;;;2.95;;
66139;SDS011;52945;51.908;8.364;2023-07-31T06:40:23;11.15;;;3.67;;
66139;SDS011;52945;51.908;8.364;2023-07-31T06:43:24;6.70;;;3.08;;
66139;SDS011;52945;51.908;8.364;2023-07-31T06:46:24;8.73;;;2.90;;
66139;SDS011;52945;51.908;8.364;2023-07-31T06:49:25;6.00;;;2.75;;
66139;SDS011;52945;51.908;8.364;2023-07-31T06:52:26;7.22;;;2.70;;
66139;SDS011;52945;51.908;8.364;2023-07-31T06:58:27;10.25;;;3.15;;
66139;SDS011;52945;51.908;8.364;2023-07-31T07:01:27;6.65;;;2.80;;
66139;SDS011;52945;51.908;8.364;2023-07-31T07:04:28;5.53;;;2.58;;
66139;SDS011;52945;51.908;8.364;2023-07-31T07:07:29;9.80;;;3.17;;
66139;SDS011;52945;51.908;8.364;2023-07-31T07:10:29;14.35;;;3.17;;
66139;SDS011;52945;51.908;8.364;2023-07-31T07:13:30;10.38;;;2.97;;
66139;SDS011;52945;51.908;8.364;2023-07-31T07:16:31;7.85;;;2.85;;
66139;SDS011;52945;51.908;8.364;2023-07-31T07:19:31;6.18;;;3.28;;
66139;SDS011;52945;51.908;8.364;2023-07-31T07:22:32;7.47;;;2.85;;
66139;SDS011;52945;51.908;8.364;2023-07-31T07:25:32;5.28;;;2.55;;
66139;SDS011;52945;51.908;8.364;2023-07-31T07:28:33;5.53;;;2.53;;
66139;SDS011;52945;51.908;8.364;2023-07-31T07:31:34;6.20;;;2.65;;
66139;SDS011;52945;51.908;8.364;2023-07-31T07:37:35;6.63;;;2.45;;
66139;SDS011;52945;51.908;8.364;2023-07-31T07:40:39;6.55;;;2.75;;
66139;SDS011;52945;51.908;8.364;2023-07-31T07:43:39;4.20;;;2.38;;
66139;SDS011;52945;51.908;8.364;2023-07-31T07:46:40;10.88;;;2.83;;
66139;SDS011;52945;51.908;8.364;2023-07-31T07:49:41;6.97;;;2.50;;
66139;SDS011;52945;51.908;8.364;2023-07-31T07:52:41;6.28;;;2.80;;
66139;SDS011;52945;51.908;8.364;2023-07-31T07:55:42;6.47;;;2.20;;
66139;SDS011;52945;51.908;8.364;2023-07-31T07:58:43;4.93;;;2.30;;
66139;SDS011;52945;51.908;8.364;2023-07-31T08:01:43;4.88;;;2.17;;
66139;SDS011;52945;51.908;8.364;2023-07-31T08:04:44;5.18;;;2.35;;
66139;SDS011;52945;51.908;8.364;2023-07-31T08:07:44;6.18;;;2.63;;
66139;SDS011;52945;51.908;8.364;2023-07-31T08:10:45;7.30;;;2.60;;
66139;SDS011;52945;51.908;8.364;2023-07-31T08:13:46;7.57;;;2.70;;
66139;SDS011;52945;51.908;8.364;2023-07-31T08:16:46;4.95;;;2.50;;
66139;SDS011;52945;51.908;8.364;2023-07-31T08:22:47;6.18;;;2.25;;
66139;SDS011;52945;51.908;8.364;2023-07-31T08:25:48;6.10;;;2.30;;
66139;SDS011;52945;51.908;8.364;2023-07-31T08:28:50;4.65;;;2.50;;
66139;SDS011;52945;51.908;8.364;2023-07-31T08:31:51;7.47;;;2.95;;
66139;SDS011;52945;51.908;8.364;2023-07-31T08:34:51;8.90;;;3.20;;
66139;SDS011;52945;51.908;8.364;2023-07-31T08:37:52;8.00;;;3.65;;
66139;SDS011;52945;51.908;8.364;2023-07-31T08:40:52;8.15;;;3.45;;
66139;SDS011;52945;51.908;8.364;2023-07-31T08:43:54;7.07;;;3.10;;
66139;SDS011;52945;51.908;8.364;2023-07-31T08:46:56;6.63;;;3.35;;
66139;SDS011;52945;51.908;8.364;2023-07-31T08:49:57;7.60;;;2.92;;
66139;SDS011;52945;51.908;8.364;2023-07-31T08:53:00;9.35;;;3.10;;
66139;SDS011;52945;51.908;8.364;2023-07-31T08:56:00;9.93;;;3.17;;
66139;SDS011;52945;51.908;8.364;2023-07-31T08:59:02;6.88;;;3.47;;
66139;SDS011;52945;51.908;8.364;2023-07-31T09:02:07;7.82;;;2.90;;
66139;SDS011;52945;51.908;8.364;2023-07-31T09:05:08;9.18;;;3.10;;
66139;SDS011;52945;51.908;8.364;2023-07-31T09:08:11;4.60;;;2.58;;
66139;SDS011;52945;51.908;8.364;2023-07-31T09:11:13;5.32;;;2.90;;
66139;SDS011;52945;51.908;8.364;2023-07-31T09:14:14;6.10;;;2.58;;
66139;SDS011;52945;51.908;8.364;2023-07-31T09:17:16;4.20;;;2.50;;
66139;SDS011;52945;51.908;8.364;2023-07-31T09:20:30;6.97;;;2.90;;
66139;SDS011;52945;51.908;8.364;2023-07-31T09:23:44;5.90;;;2.42;;
66139;SDS011;52945;51.908;8.364;2023-07-31T09:26:50;4.97;;;2.45;;
66139;SDS011;52945;51.908;8.364;2023-07-31T09:29:59;4.43;;;2.17;;
66139;SDS011;52945;51.908;8.364;2023-07-31T09:33:03;4.85;;;2.35;;
66139;SDS011;52945;51.908;8.364;2023-07-31T09:36:28;6.88;;;2.38;;
66139;SDS011;52945;51.908;8.364;2023-07-31T09:39:31;3.47;;;1.95;;
66139;SDS011;52945;51.908;8.364;2023-07-31T09:42:31;4.95;;;2.40;;
66139;SDS011;52945;51.908;8.364;2023-07-31T09:45:35;6.22;;;2.50;;
66139;SDS011;52945;51.908;8.364;2023-07-31T09:48:38;4.82;;;2.33;;
66139;SDS011;52945;51.908;8.364;2023-07-31T09:51:39;4.85;;;2.30;;
66139;SDS011;52945;51.908;8.364;2023-07-31T09:54:41;5.80;;;2.30;;
66139;SDS011;52945;51.908;8.364;2023-07-31T09:57:44;4.32;;;2.28;;
66139;SDS011;52945;51.908;8.364;2023-07-31T10:00:46;5.82;;;2.13;;
66139;SDS011;52945;51.908;8.364;2023-07-31T10:06:48;7.15;;;2.13;;
66139;SDS011;52945;51.908;8.364;2023-07-31T10:09:51;4.43;;;1.90;;
66139;SDS011;52945;51.908;8.364;2023-07-31T10:12:53;4.78;;;1.77;;
66139;SDS011;52945;51.908;8.364;2023-07-31T10:15:58;2.60;;;1.67;;
66139;SDS011;52945;51.908;8.364;2023-07-31T10:19:02;3.47;;;1.50;;
66139;SDS011;52945;51.908;8.364;2023-07-31T10:25:04;2.60;;;1.60;;
66139;SDS011;52945;51.908;8.364;2023-07-31T10:28:08;2.28;;;1.17;;
66139;SDS011;52945;51.908;8.364;2023-07-31T10:31:10;4.15;;;1.38;;
66139;SDS011;52945;51.908;8.364;2023-07-31T10:34:10;1.13;;;0.98;;
66139;SDS011;52945;51.908;8.364;2023-07-31T10:40:36;1.85;;;1.23;;
66139;SDS011;52945;51.908;8.364;2023-07-31T10:43:37;1.70;;;1.15;;
66139;SDS011;52945;51.908;8.364;2023-07-31T10:46:38;1.13;;;0.98;;
66139;SDS011;52945;51.908;8.364;2023-07-31T10:49:38;1.45;;;0.98;;
66139;SDS011;52945;51.908;8.364;2023-07-31T10:55:40;1.58;;;0.93;;
66139;SDS011;52945;51.908;8.364;2023-07-31T10:58:43;2.20;;;1.40;;
66139;SDS011;52945;51.908;8.364;2023-07-31T11:01:55;2.05;;;1.27;;
66139;SDS011;52945;51.908;8.364;2023-07-31T11:05:05;2.30;;;1.20;;
66139;SDS011;52945;51.908;8.364;2023-07-31T11:08:19;2.28;;;1.30;;
66139;SDS011;52945;51.908;8.364;2023-07-31T11:11:21;1.83;;;1.08;;
66139;SDS011;52945;51.908;8.364;2023-07-31T11:14:22;1.35;;;1.00;;
66139;SDS011;52945;51.908;8.364;2023-07-31T11:20:25;4.85;;;1.42;;
66139;SDS011;52945;51.908;8.364;2023-07-31T11:26:26;3.47;;;1.27;;
66139;SDS011;52945;51.908;8.364;2023-07-31T11:29:27;2.60;;;1.30;;
66139;SDS011;52945;51.908;8.364;2023-07-31T11:32:28;2.80;;;1.48;;
66139;SDS011;52945;51.908;8.364;2023-07-31T11:35:33;2.28;;;1.20;;
66139;SDS011;52945;51.908;8.364;2023-07-31T11:38:35;3.30;;;1.48;;
66139;SDS011;52945;51.908;8.364;2023-07-31T11:41:36;2.30;;;1.25;;
66139;SDS011;52945;51.908;8.364;2023-07-31T11:44:40;2.85;;;1.10;;
66139;SDS011;52945;51.908;8.364;2023-07-31T11:47:47;3.55;;;1.60;;
66139;SDS011;52945;51.908;8.364;2023-07-31T11:53:56;1.75;;;1.05;;
66139;SDS011;52945;51.908;8.364;2023-07-31T11:56:59;3.80;;;1.17;;
66139;SDS011;52945;51.908;8.364;2023-07-31T12:00:01;1.38;;;1.00;;
66139;SDS011;52945;51.908;8.364;2023-07-31T12:03:03;2.50;;;1.20;;
66139;SDS011;52945;51.908;8.364;2023-07-31T12:06:03;1.58;;;0.90;;
66139;SDS011;52945;51.908;8.364;2023-07-31T12:09:04;1.63;;;1.00;;
66139;SDS011;52945;51.908;8.364;2023-07-31T12:15:15;0.88;;;0.75;;
66139;SDS011;52945;51.908;8.364;2023-07-31T12:18:19;1.88;;;1.10;;
66139;SDS011;52945;51.908;8.364;2023-07-31T12:21:20;1.50;;;1.00;;
66139;SDS011;52945;51.908;8.364;2023-07-31T12:27:21;3.92;;;1.13;;
66139;SDS011;52945;51.908;8.364;2023-07-31T12:30:28;1.25;;;0.90;;
66139;SDS011;52945;51.908;8.364;2023-07-31T12:33:32;3.28;;;0.93;;
66139;SDS011;52945;51.908;8.364;2023-07-31T12:36:36;1.40;;;1.00;;
66139;SDS011;52945;51.908;8.364;2023-07-31T12:42:37;3.22;;;1.20;;
66139;SDS011;52945;51.908;8.364;2023-07-31T12:48:38;1.80;;;1.10;;
66139;SDS011;52945;51.908;8.364;2023-07-31T12:54:40;2.42;;;1.50;;
66139;SDS011;52945;51.908;8.364;2023-07-31T13:00:42;4.22;;;1.40;;
66139;SDS011;52945;51.908;8.364;2023-07-31T13:06:43;3.15;;;1.83;;
66139;SDS011;52945;51.908;8.364;2023-07-31T13:12:44;6.22;;;1.98;;
66139;SDS011;52945;51.908;8.364;2023-07-31T13:18:45;4.78;;;1.95;;
66139;SDS011;52945;51.908;8.364;2023-07-31T13:24:47;4.45;;;2.28;;
66139;SDS011;52945;51.908;8.364;2023-07-31T13:30:48;2.47;;;1.83;;
66139;SDS011;52945;51.908;8.364;2023-07-31T13:36:49;2.58;;;1.83;;
66139;SDS011;52945;51.908;8.364;2023-07-31T13:42:50;3.55;;;2.17;;
66139;SDS011;52945;51.908;8.364;2023-07-31T13:48:51;2.63;;;1.70;;
66139;SDS011;52945;51.908;8.364;2023-07-31T13:51:55;2.05;;;1.45;;
66139;SDS011;52945;51.908;8.364;2023-07-31T13:54:56;6.15;;;2.20;;
66139;SDS011;52945;51.908;8.364;2023-07-31T14:00:57;3.45;;;1.80;;
66139;SDS011;52945;51.908;8.364;2023-07-31T14:06:58;2.72;;;1.83;;
66139;SDS011;52945;51.908;8.364;2023-07-31T14:12:59;2.90;;;1.73;;
66139;SDS011;52945;51.908;8.364;2023-07-31T14:19:00;4.07;;;1.58;;
66139;SDS011;52945;51.908;8.364;2023-07-31T14:25:02;1.70;;;1.50;;
66139;SDS011;52945;51.908;8.364;2023-07-31T14:31:03;4.13;;;1.35;;
66139;SDS011;52945;51.908;8.364;2023-07-31T14:37:04;4.10;;;1.63;;
66139;SDS011;52945;51.908;8.364;2023-07-31T14:40:05;3.20;;;1.40;;
66139;SDS011;52945;51.908;8.364;2023-07-31T14:43:07;2.65;;;1.77;;
66139;SDS011;52945;51.908;8.364;2023-07-31T14:46:08;2.58;;;1.33;;
66139;SDS011;52945;51.908;8.364;2023-07-31T14:49:08;4.38;;;1.20;;
66139;SDS011;52945;51.908;8.364;2023-07-31T14:55:10;2.95;;;1.30;;
66139;SDS011;52945;51.908;8.364;2023-07-31T14:58:10;2.38;;;1.23;;
66139;SDS011;52945;51.908;8.364;2023-07-31T15:01:11;2.00;;;1.20;;
66139;SDS011;52945;51.908;8.364;2023-07-31T15:04:11;1.40;;;1.13;;
66139;SDS011;52945;51.908;8.364;2023-07-31T15:07:12;1.45;;;1.20;;
66139;SDS011;52945;51.908;8.364;2023-07-31T15:10:13;1.63;;;1.27;;
66139;SDS011;52945;51.908;8.364;2023-07-31T15:13:14;1.70;;;1.08;;
66139;SDS011;52945;51.908;8.364;2023-07-31T15:16:15;2.28;;;1.20;;
66139;SDS011;52945;51.908;8.364;2023-07-31T15:19:15;4.68;;;1.25;;
66139;SDS011;52945;51.908;8.364;2023-07-31T15:22:16;3.13;;;1.67;;
66139;SDS011;52945;51.908;8.364;2023-07-31T15:28:18;1.35;;;1.13;;
66139;SDS011;52945;51.908;8.364;2023-07-31T15:31:18;2.13;;;1.30;;
66139;SDS011;52945;51.908;8.364;2023-07-31T15:37:20;3.38;;;1.55;;
66139;SDS011;52945;51.908;8.364;2023-07-31T15:43:21;1.98;;;1.40;;
66139;SDS011;52945;51.908;8.364;2023-07-31T15:49:23;3.17;;;1.48;;
66139;SDS011;52945;51.908;8.364;2023-07-31T15:55:24;2.40;;;1.30;;
66139;SDS011;52945;51.908;8.364;2023-07-31T15:58:25;2.55;;;1.50;;
66139;SDS011;52945;51.908;8.364;2023-07-31T16:04:26;3.15;;;1.85;;
66139;SDS011;52945;51.908;8.364;2023-07-31T16:10:27;3.30;;;2.00;;
66139;SDS011;52945;51.908;8.364;2023-07-31T16:16:28;4.13;;;1.80;;
66139;SDS011;52945;51.908;8.364;2023-07-31T16:22:29;2.28;;;1.58;;
66139;SDS011;52945;51.908;8.364;2023-07-31T16:28:30;2.50;;;1.50;;
66139;SDS011;52945;51.908;8.364;2023-07-31T16:34:32;3.92;;;1.90;;
66139;SDS011;52945;51.908;8.364;2023-07-31T16:40:33;3.92;;;1.65;;
66139;SDS011;52945;51.908;8.364;2023-07-31T16:43:34;4.07;;;1.98;;
66139;SDS011;52945;51.908;8.364;2023-07-31T16:49:35;3.28;;;1.75;;
66139;SDS011;52945;51.908;8.364;2023-07-31T16:55:36;3.13;;;1.75;;
66139;SDS011;52945;51.908;8.364;2023-07-31T17:01:37;3.92;;;2.35;;
66139;SDS011;52945;51.908;8.364;2023-07-31T17:04:38;5.30;;;2.00;;
66139;SDS011;52945;51.908;8.364;2023-07-31T17:07:38;2.55;;;1.88;;
66139;SDS011;52945;51.908;8.364;2023-07-31T17:13:39;3.17;;;1.80;;
66139;SDS011;52945;51.908;8.364;2023-07-31T17:16:40;3.33;;;2.08;;
66139;SDS011;52945;51.908;8.364;2023-07-31T17:22:41;5.28;;;2.20;;
66139;SDS011;52945;51.908;8.364;2023-07-31T17:25:44;4.40;;;2.03;;
66139;SDS011;52945;51.908;8.364;2023-07-31T17:31:45;4.80;;;2.30;;
66139;SDS011;52945;51.908;8.364;2023-07-31T17:37:46;3.38;;;2.17;;
66139;SDS011;52945;51.908;8.364;2023-07-31T17:43:47;4.93;;;1.90;;
66139;SDS011;52945;51.908;8.364;2023-07-31T17:49:48;4.40;;;2.13;;
66139;SDS011;52945;51.908;8.364;2023-07-31T17:52:50;3.47;;;2.10;;
66139;SDS011;52945;51.908;8.364;2023-07-31T17:58:51;5.18;;;2.17;;
66139;SDS011;52945;51.908;8.364;2023-07-31T18:04:52;4.55;;;2.10;;
66139;SDS011;52945;51.908;8.364;2023-07-31T18:07:52;4.10;;;2.60;;
66139;SDS011;52945;51.908;8.364;2023-07-31T18:13:53;2.90;;;1.90;;
66139;SDS011;52945;51.908;8.364;2023-07-31T18:19:54;4.22;;;2.30;;
66139;SDS011;52945;51.908;8.364;2023-07-31T18:25:55;5.22;;;2.13;;
66139;SDS011;52945;51.908;8.364;2023-07-31T18:31:56;3.63;;;1.73;;
66139;SDS011;52945;51.908;8.364;2023-07-31T18:34:57;3.47;;;1.95;;
66139;SDS011;52945;51.908;8.364;2023-07-31T18:40:58;3.83;;;1.80;;
66139;SDS011;52945;51.908;8.364;2023-07-31T18:47:00;4.40;;;2.10;;
66139;SDS011;52945;51.908;8.364;2023-07-31T18:50:02;2.95;;;1.95;;
66139;SDS011;52945;51.908;8.364;2023-07-31T18:53:03;5.47;;;2.42;;
66139;SDS011;52945;51.908;8.364;2023-07-31T18:56:04;3.60;;;1.90;;
66139;SDS011;52945;51.908;8.364;2023-07-31T19:02:06;4.25;;;1.90;;
66139;SDS011;52945;51.908;8.364;2023-07-31T19:05:06;3.22;;;1.90;;
66139;SDS011;52945;51.908;8.364;2023-07-31T19:08:07;4.15;;;1.85;;
66139;SDS011;52945;51.908;8.364;2023-07-31T19:11:23;4.13;;;2.45;;
66139;SDS011;52945;51.908;8.364;2023-07-31T19:17:24;4.13;;;1.92;;
66139;SDS011;52945;51.908;8.364;2023-07-31T19:23:25;4.40;;;2.28;;
66139;SDS011;52945;51.908;8.364;2023-07-31T19:29:26;5.07;;;1.75;;
66139;SDS011;52945;51.908;8.364;2023-07-31T19:32:27;3.35;;;2.03;;
66139;SDS011;52945;51.908;8.364;2023-07-31T19:35:28;3.88;;;2.00;;
66139;SDS011;52945;51.908;8.364;2023-07-31T19:41:29;4.25;;;1.83;;
66139;SDS011;52945;51.908;8.364;2023-07-31T19:44:30;4.22;;;1.80;;
66139;SDS011;52945;51.908;8.364;2023-07-31T19:50:32;3.80;;;1.70;;
66139;SDS011;52945;51.908;8.364;2023-07-31T19:53:32;6.03;;;2.10;;
66139;SDS011;52945;51.908;8.364;2023-07-31T19:56:33;4.05;;;2.00;;
66139;SDS011;52945;51.908;8.364;2023-07-31T19:59:33;3.35;;;1.90;;
66139;SDS011;52945;51.908;8.364;2023-07-31T20:05:34;3.13;;;1.85;;
66139;SDS011;52945;51.908;8.364;2023-07-31T20:08:36;3.90;;;1.40;;
66139;SDS011;52945;51.908;8.364;2023-07-31T20:11:37;3.03;;;1.50;;
66139;SDS011;52945;51.908;8.364;2023-07-31T20:14:38;3.83;;;1.70;;
66139;SDS011;52945;51.908;8.364;2023-07-31T20:17:38;2.83;;;1.50;;
66139;SDS011;52945;51.908;8.364;2023-07-31T20:23:39;4.63;;;1.30;;
66139;SDS011;52945;51.908;8.364;2023-07-31T20:26:41;3.40;;;1.67;;
66139;SDS011;52945;51.908;8.364;2023-07-31T20:29:42;2.95;;;1.65;;
66139;SDS011;52945;51.908;8.364;2023-07-31T20:35:44;2.15;;;1.40;;
66139;SDS011;52945;51.908;8.364;2023-07-31T20:38:45;2.35;;;1.30;;
66139;SDS011;52945;51.908;8.364;2023-07-31T20:44:47;2.33;;;1.30;;
66139;SDS011;52945;51.908;8.364;2023-07-31T20:47:47;4.65;;;1.30;;
66139;SDS011;52945;51.908;8.364;2023-07-31T20:53:48;4.70;;;1.40;;
66139;SDS011;52945;51.908;8.364;2023-07-31T20:56:51;2.17;;;1.30;;
66139;SDS011;52945;51.908;8.364;2023-07-31T20:59:57;2.35;;;1.20;;
66139;SDS011;52945;51.908;8.364;2023-07-31T21:02:57;1.42;;;1.13;;
66139;SDS011;52945;51.908;8.364;2023-07-31T21:05:58;2.83;;;1.17;;
66139;SDS011;52945;51.908;8.364;2023-07-31T21:09:00;1.63;;;1.00;;
66139;SDS011;52945;51.908;8.364;2023-07-31T21:12:00;1.60;;;1.10;;
66139;SDS011;52945;51.908;8.364;2023-07-31T21:15:01;3.15;;;1.20;;
66139;SDS011;52945;51.908;8.364;2023-07-31T21:18:02;1.02;;;0.93;;
66139;SDS011;52945;51.908;8.364;2023-07-31T21:24:03;1.25;;;1.00;;
66139;SDS011;52945;51.908;8.364;2023-07-31T21:27:04;1.75;;;1.10;;
66139;SDS011;52945;51.908;8.364;2023-07-31T21:30:05;2.20;;;1.20;;
66139;SDS011;52945;51.908;8.364;2023-07-31T21:33:06;1.17;;;0.90;;
66139;SDS011;52945;51.908;8.364;2023-07-31T21:36:07;1.40;;;0.90;;
66139;SDS011;52945;51.908;8.364;2023-07-31T21:39:08;0.95;;;0.85;;
66139;SDS011;52945;51.908;8.364;2023-07-31T21:42:10;1.15;;;0.90;;
66139;SDS011;52945;51.908;8.364;2023-07-31T21:45:11;0.90;;;0.90;;
66139;SDS011;52945;51.908;8.364;2023-07-31T21:48:11;1.23;;;1.13;;
66139;SDS011;52945;51.908;8.364;2023-07-31T21:51:12;1.92;;;0.90;;
66139;SDS011;52945;51.908;8.364;2023-07-31T21:54:13;2.10;;;0.70;;
66139;SDS011;52945;51.908;8.364;2023-07-31T21:57:13;1.25;;;0.90;;
66139;SDS011;52945;51.908;8.364;2023-07-31T22:00:14;0.98;;;0.68;;
66139;SDS011;52945;51.908;8.364;2023-07-31T22:03:15;2.35;;;0.90;;
66139;SDS011;52945;51.908;8.364;2023-07-31T22:06:15;0.82;;;0.70;;
66139;SDS011;52945;51.908;8.364;2023-07-31T22:09:16;1.63;;;1.00;;